Time;durP1;ratioP1;P1;durP2;ratioP2;P2;SDS_P1;SDS_P2;PMS_P1;PMS_P2;Temp;Humidity;BMP_temperature;BMP_pressure;BME280_temperature;BME280_humidity;BME280_pressure;Samples;Min_cycle;Max_cycle;Signal;HPM_P1;HPM_P2
2024/03/18 00:01:32;;;;;;;8.43;4.30;;;10.40;99.90;;;;;;4969873;28;20037;-81
2024/03/18 00:03:58;;;;;;;9.65;4.43;;;10.40;99.90;;;;;;4975751;28;20048;-81
2024/03/18 00:06:23;;;;;;;6.28;4.38;;;10.40;99.90;;;;;;4972259;28;20030;-79
2024/03/18 00:08:49;;;;;;;6.85;5.45;;;10.40;99.90;;;;;;4968260;28;20041;-79
2024/03/18 00:11:14;;;;;;;5.50;4.30;;;10.40;99.90;;;;;;4971693;28;20093;-79
2024/03/18 00:13:40;;;;;;;7.68;5.07;;;10.40;99.90;;;;;;4972827;28;20065;-79
2024/03/18 00:16:05;;;;;;;8.05;4.82;;;10.40;99.90;;;;;;4955655;28;20142;-79
2024/03/18 00:18:31;;;;;;;11.52;5.85;;;10.40;99.90;;;;;;4972422;28;20025;-80
2024/03/18 00:20:57;;;;;;;5.80;4.35;;;10.40;99.90;;;;;;4976115;28;20046;-79
2024/03/18 00:23:22;;;;;;;6.10;4.80;;;10.40;99.90;;;;;;4953854;28;20041;-79
2024/03/18 00:25:48;;;;;;;6.93;4.78;;;10.40;99.90;;;;;;4956922;28;20672;-79
2024/03/18 00:28:14;;;;;;;6.10;4.43;;;10.40;99.90;;;;;;4955315;28;20548;-78
2024/03/18 00:30:40;;;;;;;5.38;4.25;;;10.40;99.90;;;;;;4965368;28;20038;-79
2024/03/18 00:33:05;;;;;;;7.65;5.68;;;10.40;99.90;;;;;;4969051;28;20629;-80
2024/03/18 00:35:31;;;;;;;16.83;8.15;;;10.30;99.90;;;;;;4971593;28;20030;-80
2024/03/18 00:37:56;;;;;;;6.93;4.72;;;10.30;99.90;;;;;;4986839;28;20045;-80
2024/03/18 00:40:22;;;;;;;8.77;5.78;;;10.30;99.90;;;;;;4956126;28;20054;-79
2024/03/18 00:42:47;;;;;;;12.10;7.68;;;10.30;99.90;;;;;;4985569;28;20029;-79
2024/03/18 00:45:14;;;;;;;8.00;5.80;;;10.30;99.90;;;;;;4986525;28;20031;-79
2024/03/18 00:47:40;;;;;;;8.48;5.55;;;10.20;99.90;;;;;;4968932;28;20056;-79
2024/03/18 00:50:10;;;;;;;7.53;4.60;;;10.20;99.90;;;;;;4970944;28;20050;-79
2024/03/18 00:52:38;;;;;;;8.93;6.47;;;10.20;99.90;;;;;;4968594;28;20035;-79
2024/03/18 00:55:04;;;;;;;11.73;7.78;;;10.20;99.90;;;;;;4983484;28;20787;-80
2024/03/18 00:57:29;;;;;;;10.95;6.15;;;10.20;99.90;;;;;;4986071;28;20430;-79
2024/03/18 00:59:55;;;;;;;13.20;7.57;;;10.20;99.90;;;;;;4971942;28;20030;-79
2024/03/18 01:02:20;;;;;;;14.00;7.95;;;10.10;99.90;;;;;;4969584;28;20105;-79
2024/03/18 01:04:46;;;;;;;7.90;5.20;;;10.10;99.90;;;;;;4973146;28;20546;-79
2024/03/18 01:07:11;;;;;;;10.68;6.18;;;10.10;99.90;;;;;;4973877;28;20392;-79
2024/03/18 01:09:39;;;;;;;10.60;7.35;;;10.10;99.90;;;;;;4989457;28;20534;-79
2024/03/18 01:12:05;;;;;;;10.25;6.05;;;10.10;99.90;;;;;;4956696;28;20038;-80
2024/03/18 01:14:31;;;;;;;9.88;5.10;;;10.10;99.90;;;;;;4972575;28;20029;-80
2024/03/18 01:16:57;;;;;;;11.25;6.25;;;10.00;99.90;;;;;;4975495;28;20078;-78
2024/03/18 01:19:23;;;;;;;12.38;6.75;;;10.10;99.90;;;;;;4962274;28;20041;-78
2024/03/18 01:21:49;;;;;;;9.32;6.30;;;10.10;99.90;;;;;;4973765;28;20034;-78
2024/03/18 01:24:15;;;;;;;8.40;5.55;;;10.10;99.90;;;;;;4973791;28;20039;-78
2024/03/18 01:26:41;;;;;;;12.23;6.70;;;10.10;99.90;;;;;;4956130;28;20120;-79
2024/03/18 01:29:07;;;;;;;6.80;4.82;;;10.10;99.90;;;;;;4974858;28;20507;-79
2024/03/18 01:31:32;;;;;;;6.90;4.68;;;10.00;99.90;;;;;;4973050;28;20039;-79
2024/03/18 01:34:00;;;;;;;8.75;5.65;;;10.10;99.90;;;;;;4954768;28;20027;-79
2024/03/18 01:36:25;;;;;;;9.25;6.07;;;10.00;99.90;;;;;;4973662;28;20065;-79
2024/03/18 01:38:51;;;;;;;9.25;5.85;;;10.00;99.90;;;;;;4957595;28;20546;-79
2024/03/18 01:41:17;;;;;;;6.90;5.13;;;10.00;99.90;;;;;;4970578;28;20035;-79
2024/03/18 01:43:42;;;;;;;6.78;5.22;;;10.00;99.90;;;;;;4970455;28;20108;-79
2024/03/18 01:46:16;;;;;;;10.13;5.72;;;9.90;99.90;;;;;;4989658;28;20048;-80
2024/03/18 01:48:42;;;;;;;10.43;6.20;;;10.00;99.90;;;;;;4963257;28;20091;-79
2024/03/18 01:51:08;;;;;;;8.98;6.25;;;9.90;99.90;;;;;;4974029;28;20046;-79
2024/03/18 01:53:33;;;;;;;11.77;6.28;;;9.90;99.90;;;;;;4987975;28;20041;-79
2024/03/18 01:55:59;;;;;;;7.78;6.25;;;9.90;99.90;;;;;;4987380;28;20034;-79
2024/03/18 01:58:24;;;;;;;8.40;5.43;;;9.90;99.90;;;;;;4968921;28;20401;-79
2024/03/18 02:00:50;;;;;;;8.40;5.60;;;9.80;99.90;;;;;;4975616;28;20416;-78
2024/03/18 02:03:17;;;;;;;8.05;5.15;;;9.90;99.90;;;;;;4969723;28;20127;-78
2024/03/18 02:05:44;;;;;;;7.20;4.50;;;9.80;99.90;;;;;;4971539;28;20031;-79
2024/03/18 02:08:09;;;;;;;7.93;5.05;;;9.90;99.90;;;;;;4986473;28;20834;-79
2024/03/18 02:10:35;;;;;;;6.95;4.90;;;9.80;99.90;;;;;;4977779;28;20032;-79
2024/03/18 02:13:04;;;;;;;9.60;4.90;;;9.70;99.90;;;;;;4988138;28;20060;-79
2024/03/18 02:15:30;;;;;;;6.95;4.53;;;9.80;99.90;;;;;;4975936;28;20026;-79
2024/03/18 02:17:56;;;;;;;5.07;3.50;;;9.90;99.90;;;;;;4988812;28;20034;-78
2024/03/18 02:20:22;;;;;;;5.40;3.53;;;9.90;99.90;;;;;;4972529;28;20035;-79
2024/03/18 02:22:48;;;;;;;5.43;3.13;;;10.00;99.90;;;;;;4970678;28;20416;-78
2024/03/18 02:25:13;;;;;;;5.57;3.55;;;10.00;99.90;;;;;;4987723;28;20038;-79
2024/03/18 02:27:39;;;;;;;3.92;2.40;;;9.90;99.90;;;;;;4971543;28;20177;-79
2024/03/18 02:30:06;;;;;;;3.70;2.55;;;9.80;99.90;;;;;;4958697;28;20035;-79
2024/03/18 02:32:35;;;;;;;4.85;3.05;;;9.90;99.90;;;;;;4957294;28;20030;-79
2024/03/18 02:35:05;;;;;;;4.30;3.20;;;10.00;99.90;;;;;;4974919;28;20026;-79
2024/03/18 02:37:31;;;;;;;3.78;2.97;;;10.00;99.90;;;;;;4958346;28;20131;-79
2024/03/18 02:39:56;;;;;;;4.10;3.15;;;10.10;99.90;;;;;;4975016;28;20035;-78
2024/03/18 02:42:22;;;;;;;3.50;3.00;;;10.00;99.90;;;;;;4985503;28;20033;-79
2024/03/18 02:44:47;;;;;;;4.65;3.40;;;10.00;99.90;;;;;;4985793;28;20105;-79
2024/03/18 02:47:13;;;;;;;3.63;2.65;;;10.00;99.90;;;;;;4988670;28;20033;-78
2024/03/18 02:49:39;;;;;;;3.05;2.30;;;10.00;99.90;;;;;;4985113;28;20034;-79
2024/03/18 02:52:04;;;;;;;4.05;2.95;;;10.00;99.90;;;;;;4958259;28;20069;-79
2024/03/18 02:54:30;;;;;;;4.18;3.40;;;10.00;99.90;;;;;;4957919;28;20124;-78
2024/03/18 02:56:55;;;;;;;4.95;3.00;;;10.00;99.90;;;;;;4958881;28;20756;-79
2024/03/18 02:59:21;;;;;;;3.15;2.50;;;10.00;99.90;;;;;;4967371;28;20060;-79
2024/03/18 03:01:49;;;;;;;4.03;2.88;;;10.00;99.90;;;;;;4970172;28;20054;-79
2024/03/18 03:04:15;;;;;;;4.53;3.60;;;10.00;99.90;;;;;;4970052;28;20034;-79
2024/03/18 03:06:41;;;;;;;7.47;4.18;;;10.00;99.90;;;;;;4953604;28;20038;-79
2024/03/18 03:09:06;;;;;;;4.43;3.22;;;10.00;99.90;;;;;;4987781;28;20045;-79
2024/03/18 03:11:32;;;;;;;4.35;3.17;;;10.00;99.90;;;;;;4984161;28;20093;-80
2024/03/18 03:13:57;;;;;;;4.13;3.13;;;9.90;99.90;;;;;;4972393;28;20095;-79
2024/03/18 03:16:23;;;;;;;8.18;4.05;;;9.90;99.90;;;;;;4983904;28;20030;-77
2024/03/18 03:18:49;;;;;;;3.08;2.38;;;9.90;99.90;;;;;;4977552;28;20050;-78
2024/03/18 03:21:15;;;;;;;4.78;3.65;;;9.90;99.90;;;;;;4972068;28;20050;-77
2024/03/18 03:23:40;;;;;;;6.38;4.28;;;9.90;99.90;;;;;;4954457;28;20066;-77
2024/03/18 03:26:06;;;;;;;4.68;3.72;;;9.90;99.90;;;;;;4974620;28;20673;-78
2024/03/18 03:28:32;;;;;;;4.43;3.20;;;9.90;99.90;;;;;;4971127;28;20038;-78
2024/03/18 03:31:05;;;;;;;2.85;2.55;;;9.90;99.90;;;;;;4971190;28;20065;-78
2024/03/18 03:33:31;;;;;;;4.93;3.45;;;10.00;99.90;;;;;;4970655;28;20117;-79
2024/03/18 03:35:57;;;;;;;4.75;3.95;;;9.90;99.90;;;;;;4977692;28;20061;-78
2024/03/18 03:38:23;;;;;;;4.95;4.07;;;9.90;99.90;;;;;;4970126;28;20057;-79
2024/03/18 03:40:52;;;;;;;5.40;2.80;;;9.90;99.90;;;;;;4967111;28;20041;-79
2024/03/18 03:43:18;;;;;;;5.25;3.33;;;10.00;99.90;;;;;;4971740;28;20054;-79
2024/03/18 03:45:49;;;;;;;3.95;3.30;;;10.00;99.90;;;;;;4954051;28;20077;-79
2024/03/18 03:48:15;;;;;;;3.55;3.15;;;9.90;99.90;;;;;;4973928;28;20041;-79
2024/03/18 03:50:40;;;;;;;5.10;3.85;;;9.90;99.90;;;;;;4974409;28;20038;-80
2024/03/18 03:53:06;;;;;;;5.18;4.07;;;9.90;99.90;;;;;;4957868;28;20026;-80
2024/03/18 03:55:36;;;;;;;4.00;3.25;;;9.90;99.90;;;;;;4986424;28;20038;-79
2024/03/18 03:58:03;;;;;;;4.45;3.67;;;9.90;99.90;;;;;;4985973;28;20033;-79
2024/03/18 04:00:31;;;;;;;3.83;3.15;;;9.90;99.90;;;;;;4969951;28;20114;-80
2024/03/18 04:02:56;;;;;;;3.22;2.72;;;9.90;99.90;;;;;;4974854;28;20029;-79
2024/03/18 04:05:22;;;;;;;3.15;2.83;;;9.90;99.90;;;;;;4970661;28;20026;-79
2024/03/18 04:07:47;;;;;;;2.88;2.20;;;9.90;99.90;;;;;;4968521;28;20030;-79
2024/03/18 04:10:13;;;;;;;7.00;4.10;;;10.00;99.90;;;;;;4953911;28;20041;-80
2024/03/18 04:12:39;;;;;;;5.97;4.28;;;9.90;99.90;;;;;;4956553;28;20034;-80
2024/03/18 04:15:07;;;;;;;3.53;2.28;;;9.90;99.90;;;;;;4985367;28;20133;-79
2024/03/18 04:17:33;;;;;;;3.88;3.42;;;9.90;99.90;;;;;;4986515;28;20566;-80
2024/03/18 04:19:59;;;;;;;4.47;3.55;;;9.90;99.90;;;;;;4969818;28;20121;-79
2024/03/18 04:22:24;;;;;;;6.18;4.50;;;9.90;99.90;;;;;;4983753;28;20640;-79
2024/03/18 04:24:50;;;;;;;4.10;3.55;;;10.00;99.90;;;;;;4983179;28;20118;-79
2024/03/18 04:27:17;;;;;;;3.13;2.40;;;9.90;99.90;;;;;;4984329;28;20041;-79
2024/03/18 04:29:43;;;;;;;3.65;2.60;;;9.90;99.90;;;;;;4984539;28;20030;-80
2024/03/18 04:32:10;;;;;;;8.43;5.32;;;9.90;99.90;;;;;;4972970;28;20093;-80
2024/03/18 04:34:35;;;;;;;8.93;4.95;;;10.00;99.90;;;;;;4972124;28;20522;-79
2024/03/18 04:37:02;;;;;;;5.82;3.95;;;10.00;99.90;;;;;;4969705;28;20042;-79
2024/03/18 04:39:28;;;;;;;3.88;2.88;;;10.00;99.90;;;;;;4971107;28;20117;-79
2024/03/18 04:41:54;;;;;;;5.38;3.80;;;10.00;99.90;;;;;;4967775;28;20105;-80
2024/03/18 04:44:20;;;;;;;6.05;2.88;;;10.10;99.90;;;;;;4970029;28;20038;-80
2024/03/18 04:46:45;;;;;;;5.38;2.80;;;10.10;99.90;;;;;;4986471;28;20034;-80
2024/03/18 04:49:11;;;;;;;2.95;2.42;;;10.00;99.90;;;;;;4986879;28;20034;-80
2024/03/18 04:51:36;;;;;;;5.68;3.75;;;10.00;99.90;;;;;;4968030;28;20053;-79
2024/03/18 04:54:02;;;;;;;6.63;4.40;;;10.00;99.90;;;;;;4955488;28;20479;-79
2024/03/18 04:56:31;;;;;;;6.38;3.60;;;10.00;99.90;;;;;;4988009;28;20026;-79
2024/03/18 04:58:59;;;;;;;5.47;4.25;;;10.10;99.90;;;;;;4985966;28;20045;-79
2024/03/18 05:01:24;;;;;;;8.15;4.65;;;10.10;99.90;;;;;;4952994;28;20035;-80
2024/03/18 05:03:50;;;;;;;7.30;4.65;;;10.10;99.90;;;;;;4947612;28;20488;-80
2024/03/18 05:06:17;;;;;;;6.80;4.20;;;10.10;99.90;;;;;;4958261;28;20038;-80
2024/03/18 05:08:43;;;;;;;6.63;4.90;;;10.10;99.90;;;;;;4971042;28;20049;-80
2024/03/18 05:11:09;;;;;;;4.80;3.50;;;10.10;99.90;;;;;;4970260;28;20034;-80
2024/03/18 05:13:35;;;;;;;5.35;3.30;;;10.00;99.90;;;;;;4970562;28;20030;-80
2024/03/18 05:16:00;;;;;;;5.60;3.85;;;10.00;99.90;;;;;;4953522;28;20117;-79
2024/03/18 05:18:26;;;;;;;8.65;5.22;;;10.00;99.90;;;;;;4967234;28;20035;-80
2024/03/18 05:20:51;;;;;;;5.95;3.80;;;10.00;99.90;;;;;;4953858;28;20027;-79
2024/03/18 05:23:17;;;;;;;3.97;3.08;;;10.10;99.90;;;;;;4967738;28;20860;-79
2024/03/18 05:25:46;;;;;;;5.82;3.88;;;10.10;99.90;;;;;;4985733;28;20050;-79
2024/03/18 05:28:11;;;;;;;4.30;3.28;;;10.00;99.90;;;;;;4970095;28;20030;-80
2024/03/18 05:30:37;;;;;;;7.88;4.38;;;10.10;99.90;;;;;;4968054;28;20038;-81
2024/03/18 05:33:03;;;;;;;4.90;2.92;;;10.10;99.90;;;;;;4970874;28;20027;-80
2024/03/18 05:35:29;;;;;;;8.95;5.15;;;10.00;99.90;;;;;;4954353;28;20405;-80
2024/03/18 05:37:55;;;;;;;6.50;4.97;;;10.00;99.90;;;;;;4985685;28;20110;-80
2024/03/18 05:40:20;;;;;;;8.63;5.72;;;10.00;99.90;;;;;;4982469;28;20499;-80
2024/03/18 05:42:46;;;;;;;6.70;5.25;;;10.00;99.90;;;;;;4968875;28;20022;-79
2024/03/18 05:45:11;;;;;;;10.98;4.00;;;10.00;99.90;;;;;;4982768;28;20373;-79
2024/03/18 05:47:37;;;;;;;4.20;3.28;;;10.00;99.90;;;;;;4969222;28;20035;-79
2024/03/18 05:50:03;;;;;;;6.35;4.07;;;10.10;99.90;;;;;;4986381;28;20189;-78
2024/03/18 05:52:28;;;;;;;11.93;6.63;;;10.10;99.90;;;;;;4970427;28;20038;-80
2024/03/18 05:54:54;;;;;;;10.60;6.22;;;10.20;99.90;;;;;;4971927;28;20504;-79
2024/03/18 05:57:20;;;;;;;6.80;5.28;;;10.00;99.90;;;;;;4974281;28;20121;-79
2024/03/18 05:59:45;;;;;;;4.68;3.38;;;10.10;99.90;;;;;;4972005;28;20480;-79
2024/03/18 06:02:11;;;;;;;4.95;3.15;;;10.20;99.90;;;;;;4970952;28;20562;-79
2024/03/18 06:04:37;;;;;;;6.03;4.03;;;10.20;99.90;;;;;;4949368;28;20720;-80
2024/03/18 06:07:04;;;;;;;5.15;3.70;;;10.30;99.90;;;;;;4952600;28;20039;-79
2024/03/18 06:09:30;;;;;;;5.13;3.83;;;10.20;99.90;;;;;;4971980;28;20105;-79
2024/03/18 06:11:57;;;;;;;5.32;4.22;;;10.20;99.90;;;;;;4984567;28;20149;-80
2024/03/18 06:14:22;;;;;;;9.95;5.93;;;10.30;99.90;;;;;;4992592;28;20035;-79
2024/03/18 06:16:48;;;;;;;5.78;4.40;;;10.20;99.90;;;;;;4951732;28;20515;-80
2024/03/18 06:19:15;;;;;;;8.60;6.20;;;10.30;99.90;;;;;;4986570;28;20045;-80
2024/03/18 06:21:45;;;;;;;14.40;7.78;;;10.20;99.90;;;;;;4969415;28;20030;-79
2024/03/18 06:24:25;;;;;;;17.05;8.90;;;10.20;99.90;;;;;;4987688;28;20531;-80
2024/03/18 06:26:50;;;;;;;7.85;5.20;;;10.20;99.90;;;;;;4960069;28;20113;-80
2024/03/18 06:29:16;;;;;;;6.50;5.05;;;10.20;99.90;;;;;;4975514;28;20117;-80
2024/03/18 06:31:42;;;;;;;10.57;6.65;;;10.30;99.90;;;;;;4970985;28;20188;-80
2024/03/18 06:34:07;;;;;;;9.38;6.50;;;10.40;99.90;;;;;;4971301;28;20042;-79
2024/03/18 06:36:33;;;;;;;9.00;5.80;;;10.30;99.90;;;;;;4972296;28;20038;-79
2024/03/18 06:38:59;;;;;;;13.10;8.65;;;10.40;99.90;;;;;;4971977;28;20513;-80
2024/03/18 06:41:25;;;;;;;11.13;6.75;;;10.30;99.90;;;;;;4973090;28;20046;-80
2024/03/18 06:43:51;;;;;;;10.10;6.35;;;10.40;99.90;;;;;;4969423;28;20033;-79
2024/03/18 06:46:16;;;;;;;7.82;5.88;;;10.40;99.90;;;;;;4956508;28;20038;-80
2024/03/18 06:48:43;;;;;;;8.35;5.90;;;10.50;99.90;;;;;;4965337;28;20110;-79
2024/03/18 06:51:15;;;;;;;10.45;7.22;;;10.50;99.90;;;;;;4954822;28;20602;-79
2024/03/18 06:53:41;;;;;;;11.38;8.18;;;10.50;99.90;;;;;;4969272;28;20034;-79
2024/03/18 06:56:09;;;;;;;16.20;8.93;;;10.50;99.90;;;;;;4978038;28;20104;-79
2024/03/18 06:58:36;;;;;;;8.05;6.30;;;10.60;99.90;;;;;;4991655;28;20035;-79
2024/03/18 07:01:02;;;;;;;13.30;6.85;;;10.60;99.90;;;;;;4988600;28;20046;-79
2024/03/18 07:03:29;;;;;;;12.40;5.90;;;10.60;99.90;;;;;;4973577;28;20089;-79
2024/03/18 07:05:54;;;;;;;12.57;7.70;;;10.60;99.90;;;;;;4958700;28;20077;-79
2024/03/18 07:08:20;;;;;;;13.50;8.73;;;10.70;99.90;;;;;;4973182;28;20504;-79
2024/03/18 07:10:45;;;;;;;11.40;7.07;;;10.70;99.90;;;;;;4989715;28;20031;-78
2024/03/18 07:13:12;;;;;;;11.38;8.10;;;10.80;99.90;;;;;;4988129;28;20030;-79
2024/03/18 07:15:37;;;;;;;17.67;10.40;;;10.80;99.90;;;;;;4970022;28;20719;-79
2024/03/18 07:18:03;;;;;;;13.27;8.98;;;10.90;99.90;;;;;;4974447;28;20033;-79
2024/03/18 07:20:29;;;;;;;17.27;11.07;;;10.90;99.90;;;;;;4984125;28;20033;-80
2024/03/18 07:22:55;;;;;;;14.25;7.35;;;11.00;99.90;;;;;;4971110;28;20031;-80
2024/03/18 07:25:21;;;;;;;14.02;9.02;;;11.00;99.90;;;;;;4955934;28;20072;-79
2024/03/18 07:27:47;;;;;;;11.02;7.15;;;11.10;99.90;;;;;;4986492;28;20084;-79
2024/03/18 07:30:13;;;;;;;14.43;8.20;;;11.10;99.90;;;;;;4960081;28;20031;-80
2024/03/18 07:32:39;;;;;;;12.60;8.20;;;11.20;99.90;;;;;;4972226;28;20526;-80
2024/03/18 07:35:06;;;;;;;15.35;10.73;;;11.20;99.90;;;;;;4968132;28;20574;-81
2024/03/18 07:37:32;;;;;;;15.63;11.02;;;11.30;99.90;;;;;;4972249;28;20491;-80
2024/03/18 07:39:58;;;;;;;8.55;6.50;;;11.40;99.90;;;;;;4970193;28;20027;-80
2024/03/18 07:42:24;;;;;;;17.42;11.32;;;11.40;99.90;;;;;;4968325;28;20451;-80
2024/03/18 07:44:49;;;;;;;14.38;9.32;;;11.60;99.90;;;;;;4990482;28;20581;-81
2024/03/18 07:47:15;;;;;;;16.75;11.18;;;11.60;99.90;;;;;;4974373;28;20038;-80
2024/03/18 07:49:42;;;;;;;16.15;11.68;;;11.60;99.90;;;;;;4987202;28;20121;-80
2024/03/18 07:52:08;;;;;;;12.65;8.68;;;11.70;99.90;;;;;;4980667;28;20047;-80
2024/03/18 07:54:34;;;;;;;15.15;9.98;;;11.80;99.90;;;;;;4972645;28;20034;-80
2024/03/18 07:57:01;;;;;;;15.35;9.80;;;11.80;99.90;;;;;;4986508;28;20042;-80
2024/03/18 07:59:26;;;;;;;11.10;7.30;;;11.90;99.90;;;;;;4970432;28;20042;-80
2024/03/18 08:01:52;;;;;;;14.70;9.80;;;11.90;99.90;;;;;;4966739;28;20563;-80
2024/03/18 08:04:18;;;;;;;12.88;9.27;;;12.00;99.90;;;;;;4957739;28;20041;-80
2024/03/18 08:06:47;;;;;;;15.25;8.40;;;12.10;99.90;;;;;;4984402;28;20403;-80
2024/03/18 08:09:14;;;;;;;11.32;6.88;;;12.10;99.90;;;;;;4985907;28;20041;-81
2024/03/18 08:11:43;;;;;;;14.43;8.50;;;12.30;99.90;;;;;;4983452;28;20231;-80
2024/03/18 08:14:09;;;;;;;16.70;10.25;;;12.30;99.90;;;;;;4984888;28;20405;-80
2024/03/18 08:16:35;;;;;;;10.55;8.38;;;12.40;99.90;;;;;;4973263;28;20043;-81
2024/03/18 08:19:00;;;;;;;16.67;11.68;;;12.50;99.90;;;;;;4983598;28;20042;-80
2024/03/18 08:21:26;;;;;;;12.18;8.02;;;12.60;99.90;;;;;;4989696;28;20514;-78
2024/03/18 08:23:52;;;;;;;17.83;10.80;;;12.60;99.90;;;;;;4982911;28;20033;-78
2024/03/18 08:26:17;;;;;;;12.10;7.32;;;12.60;99.90;;;;;;4990051;28;20035;-77
2024/03/18 08:28:43;;;;;;;8.23;6.50;;;12.70;99.90;;;;;;4970319;28;20057;-78
2024/03/18 08:31:10;;;;;;;11.88;7.38;;;12.80;99.90;;;;;;4971019;28;20039;-78
2024/03/18 08:33:36;;;;;;;10.43;7.03;;;12.70;99.90;;;;;;4955912;28;20034;-80
2024/03/18 08:36:03;;;;;;;11.68;7.22;;;12.80;99.90;;;;;;4954270;28;20551;-81
2024/03/18 08:38:29;;;;;;;11.38;7.90;;;12.70;99.90;;;;;;4985471;28;20370;-81
2024/03/18 08:40:55;;;;;;;13.25;8.63;;;12.60;99.90;;;;;;4967163;28;20029;-79
2024/03/18 08:43:20;;;;;;;10.23;7.38;;;12.80;99.90;;;;;;4984803;28;20027;-81
2024/03/18 08:45:58;;;;;;;14.88;9.25;;;13.00;99.90;;;;;;4968434;28;20023;-81
2024/03/18 08:48:27;;;;;;;11.85;7.93;;;13.00;99.90;;;;;;4975935;28;20567;-80
2024/03/18 08:50:52;;;;;;;11.43;6.82;;;13.00;99.90;;;;;;4968656;28;20061;-80
2024/03/18 08:53:20;;;;;;;13.20;8.30;;;13.10;99.90;;;;;;4977542;28;20093;-80
2024/03/18 08:55:46;;;;;;;15.70;10.25;;;13.10;99.90;;;;;;4980240;28;20057;-80
2024/03/18 08:58:12;;;;;;;14.80;9.73;;;13.30;99.90;;;;;;4958193;28;20504;-80
2024/03/18 09:00:38;;;;;;;10.00;7.25;;;13.40;99.90;;;;;;4985773;28;20083;-79
2024/03/18 09:03:04;;;;;;;12.25;8.13;;;13.30;99.90;;;;;;4969394;28;20719;-79
2024/03/18 09:05:30;;;;;;;7.40;3.67;;;13.40;99.90;;;;;;4973340;28;20549;-79
2024/03/18 09:07:56;;;;;;;14.10;9.30;;;13.30;99.90;;;;;;4985732;28;20601;-79
2024/03/18 09:10:22;;;;;;;12.93;8.30;;;13.40;99.90;;;;;;4966696;28;20019;-79
2024/03/18 09:12:49;;;;;;;10.82;8.40;;;13.50;99.90;;;;;;4966352;28;20110;-78
2024/03/18 09:15:15;;;;;;;13.05;9.93;;;13.70;99.90;;;;;;4983527;28;20054;-79
2024/03/18 09:17:45;;;;;;;12.05;8.30;;;13.70;99.90;;;;;;4985501;28;20058;-79
2024/03/18 09:20:13;;;;;;;12.55;8.73;;;13.80;99.90;;;;;;4985784;28;20034;-79
2024/03/18 09:22:39;;;;;;;13.60;8.55;;;13.90;99.90;;;;;;4953261;28;20361;-79
2024/03/18 09:25:06;;;;;;;15.93;12.02;;;13.90;99.90;;;;;;4965983;28;20049;-79
2024/03/18 09:27:33;;;;;;;14.20;9.57;;;14.00;99.90;;;;;;4968265;28;20103;-79
2024/03/18 09:29:59;;;;;;;11.95;9.13;;;14.20;99.90;;;;;;4989529;28;20030;-79
2024/03/18 09:32:25;;;;;;;12.07;8.48;;;14.30;99.90;;;;;;4988638;28;20120;-79
2024/03/18 09:34:51;;;;;;;15.07;9.55;;;14.30;99.90;;;;;;4976193;28;20756;-79
2024/03/18 09:37:17;;;;;;;13.20;9.65;;;14.60;99.90;;;;;;4975463;28;20133;-79
2024/03/18 09:39:42;;;;;;;17.52;11.20;;;14.70;99.90;;;;;;4992416;28;20030;-79
2024/03/18 09:42:08;;;;;;;16.33;10.95;;;14.60;99.90;;;;;;4969643;28;20038;-79
2024/03/18 09:44:35;;;;;;;21.83;14.30;;;14.90;99.90;;;;;;4988830;28;20539;-79
2024/03/18 09:47:01;;;;;;;17.20;11.18;;;15.20;99.90;;;;;;4971506;28;20079;-79
2024/03/18 09:49:26;;;;;;;14.43;9.25;;;15.50;99.90;;;;;;4960632;28;20038;-79
2024/03/18 09:51:52;;;;;;;14.15;10.25;;;15.70;99.90;;;;;;4968174;28;20034;-79
2024/03/18 09:54:18;;;;;;;17.25;11.63;;;15.90;99.90;;;;;;4986646;28;20038;-79
2024/03/18 09:56:54;;;;;;;12.10;7.82;;;16.20;99.90;;;;;;4954840;28;20046;-78
2024/03/18 09:59:19;;;;;;;19.00;10.57;;;16.40;99.90;;;;;;4955135;28;20455;-79
2024/03/18 10:01:45;;;;;;;20.98;8.18;;;16.60;99.90;;;;;;4948877;28;20023;-79
2024/03/18 10:04:10;;;;;;;11.43;7.45;;;16.50;99.90;;;;;;4956079;28;20037;-79
2024/03/18 10:06:37;;;;;;;15.65;8.05;;;16.80;99.90;;;;;;4989804;28;20034;-78
2024/03/18 10:09:03;;;;;;;12.50;6.78;;;16.70;99.90;;;;;;4972003;28;20038;-79
2024/03/18 10:11:29;;;;;;;11.00;6.90;;;16.90;99.90;;;;;;4988437;28;20087;-79
2024/03/18 10:13:54;;;;;;;7.72;6.05;;;17.00;99.90;;;;;;4985000;28;20140;-79
2024/03/18 10:16:22;;;;;;;11.50;6.60;;;16.80;99.90;;;;;;4971912;28;20038;-79
2024/03/18 10:18:47;;;;;;;15.90;7.53;;;16.80;99.90;;;;;;4976718;28;20416;-77
2024/03/18 10:21:13;;;;;;;15.55;8.35;;;17.00;99.90;;;;;;4955517;28;20046;-79
2024/03/18 10:23:44;;;;;;;10.95;6.80;;;17.10;99.90;;;;;;4974556;28;20034;-78
2024/03/18 10:26:10;;;;;;;15.38;8.10;;;17.20;99.90;;;;;;4965361;28;20073;-78
2024/03/18 10:28:39;;;;;;;13.95;9.98;;;17.20;99.90;;;;;;4987809;28;20023;-79
2024/03/18 10:31:05;;;;;;;15.45;9.68;;;17.30;99.90;;;;;;4971030;28;20037;-79
2024/03/18 10:33:30;;;;;;;19.02;11.05;;;17.40;99.90;;;;;;4962462;28;20035;-79
2024/03/18 10:35:56;;;;;;;15.70;10.00;;;17.20;99.90;;;;;;4958055;28;20045;-79
2024/03/18 10:38:26;;;;;;;15.02;9.15;;;17.30;99.90;;;;;;4989565;28;20026;-78
2024/03/18 10:41:07;;;;;;;16.90;9.90;;;17.40;99.90;;;;;;4977067;28;20524;-78
2024/03/18 10:43:36;;;;;;;18.25;10.43;;;17.40;99.90;;;;;;4969141;28;20105;-79
2024/03/18 10:46:01;;;;;;;15.88;10.23;;;17.40;99.90;;;;;;4986892;28;20062;-79
2024/03/18 10:48:27;;;;;;;14.07;9.40;;;17.60;99.90;;;;;;4956398;28;20061;-79
2024/03/18 10:50:54;;;;;;;15.07;8.52;;;17.70;99.90;;;;;;4971430;28;20069;-79
2024/03/18 10:53:21;;;;;;;17.13;9.75;;;17.90;99.90;;;;;;4957066;28;20556;-79
2024/03/18 10:55:48;;;;;;;12.88;9.77;;;18.10;99.90;;;;;;4973517;28;20081;-79
2024/03/18 10:58:16;;;;;;;12.45;8.85;;;18.00;99.90;;;;;;4962765;28;20035;-77
2024/03/18 11:00:43;;;;;;;16.23;11.20;;;18.00;99.90;;;;;;4973093;28;20037;-79
2024/03/18 11:03:17;;;;;;;16.50;11.07;;;18.00;99.90;;;;;;4970079;28;20065;-79
2024/03/18 11:05:52;;;;;;;15.32;9.07;;;18.20;99.90;;;;;;4957542;28;20121;-76
2024/03/18 11:08:19;;;;;;;15.30;9.13;;;18.30;99.90;;;;;;4984282;28;20449;-77
2024/03/18 11:10:48;;;;;;;10.13;8.00;;;18.20;99.90;;;;;;5006433;28;20344;-77
2024/03/18 11:13:18;;;;;;;13.43;9.27;;;18.30;99.90;;;;;;4984863;28;20056;-78
2024/03/18 11:15:47;;;;;;;13.23;8.27;;;18.40;99.90;;;;;;5012227;28;20030;-77
2024/03/18 11:18:16;;;;;;;10.85;7.38;;;18.60;99.90;;;;;;5010007;28;20037;-78
2024/03/18 11:20:46;;;;;;;12.57;6.13;;;18.70;99.90;;;;;;4992075;28;20030;-78
2024/03/18 11:23:19;;;;;;;8.98;5.60;;;19.00;99.90;;;;;;4995000;28;20120;-78
2024/03/18 11:25:56;;;;;;;9.77;5.28;;;19.00;99.90;;;;;;5010519;28;20026;-77
2024/03/18 11:28:34;;;;;;;7.35;4.10;;;18.70;99.90;;;;;;5008294;28;20470;-79
2024/03/18 11:31:00;;;;;;;6.45;4.50;;;18.90;99.90;;;;;;4974051;28;20530;-78
2024/03/18 11:33:26;;;;;;;5.50;3.10;;;18.60;99.90;;;;;;4987466;28;20026;-78
2024/03/18 11:35:53;;;;;;;7.70;4.00;;;18.50;99.90;;;;;;4977628;28;20165;-78
2024/03/18 11:38:19;;;;;;;7.35;4.68;;;18.40;99.90;;;;;;4630003;28;10000019;-78
2024/03/18 11:40:45;;;;;;;7.93;4.40;;;18.40;99.90;;;;;;5001583;28;20570;-77
2024/03/18 11:43:12;;;;;;;8.95;4.50;;;18.30;99.90;;;;;;4988967;28;20049;-78
2024/03/18 11:45:37;;;;;;;7.20;3.83;;;18.30;99.90;;;;;;4973518;28;20491;-78
2024/03/18 11:48:07;;;;;;;7.00;4.18;;;18.20;99.90;;;;;;4625616;28;10000070;-79
2024/03/18 11:50:34;;;;;;;7.07;3.72;;;18.10;99.90;;;;;;4971214;28;20034;-80
2024/03/18 11:53:12;;;;;;;6.00;3.55;;;18.00;99.90;;;;;;4984587;28;20590;-79
2024/03/18 11:55:38;;;;;;;7.82;3.05;;;18.10;99.90;;;;;;4971140;28;20033;-80
2024/03/18 11:58:04;;;;;;;5.97;2.83;;;18.00;99.90;;;;;;4956880;28;20045;-79
2024/03/18 12:00:34;;;;;;;4.20;2.42;;;17.90;99.90;;;;;;4960025;28;20100;-80
2024/03/18 12:03:02;;;;;;;7.90;2.50;;;17.90;99.90;;;;;;4991016;28;20029;-80
2024/03/18 12:05:28;;;;;;;4.03;2.28;;;17.90;99.90;;;;;;4973411;28;20025;-80
2024/03/18 12:07:54;;;;;;;6.20;2.15;;;17.80;99.90;;;;;;4956115;28;20069;-80
2024/03/18 12:10:21;;;;;;;7.07;2.83;;;17.80;99.90;;;;;;4988353;28;20484;-80
2024/03/18 12:12:47;;;;;;;5.85;3.33;;;17.80;99.90;;;;;;4984110;28;20038;-80
2024/03/18 12:15:12;;;;;;;4.68;2.30;;;17.80;99.90;;;;;;4991630;28;20030;-79
2024/03/18 12:17:38;;;;;;;6.18;2.80;;;17.80;99.90;;;;;;5005511;28;20038;-80
2024/03/18 12:20:06;;;;;;;15.52;4.15;;;17.70;99.90;;;;;;4973286;28;20138;-79
2024/03/18 12:22:34;;;;;;;4.95;3.65;;;17.80;99.90;;;;;;4971761;28;20460;-79
2024/03/18 12:30:31;;;;;;;7.60;5.97;;;17.70;99.90;;;;;;5000695;28;20041;-80
2024/03/18 12:32:57;;;;;;;8.63;5.72;;;17.70;99.90;;;;;;4967079;28;20512;-80
2024/03/18 12:35:23;;;;;;;13.98;5.88;;;17.70;99.90;;;;;;4973123;28;20101;-80
2024/03/18 12:37:49;;;;;;;12.45;5.85;;;17.80;99.90;;;;;;4972916;28;20797;-80
2024/03/18 12:40:16;;;;;;;11.57;6.53;;;17.90;99.90;;;;;;4972914;28;22742;-79
2024/03/18 12:42:46;;;;;;;7.78;4.97;;;17.90;99.90;;;;;;4966222;28;20045;-79
2024/03/18 12:45:12;;;;;;;10.60;7.40;;;18.00;99.90;;;;;;4969479;28;20069;-80